sensor_id;sensor_type;location;lat;lon;timestamp;pressure;altitude;pressure_sealevel;temperature;humidity
36664;BME280;53333;51.976;20.144;2023-09-19T00:02:18;99476.78;;;20.96;60.75
36664;BME280;53333;51.976;20.144;2023-09-19T00:04:51;99474.78;;;20.98;60.86
36664;BME280;53333;51.976;20.144;2023-09-19T00:07:25;99470.22;;;20.99;60.73
36664;BME280;53333;51.976;20.144;2023-09-19T00:10:00;99465.78;;;20.98;60.43
36664;BME280;53333;51.976;20.144;2023-09-19T00:12:34;99455.94;;;20.97;60.52
36664;BME280;53333;51.976;20.144;2023-09-19T00:15:07;99454.25;;;20.96;60.60
36664;BME280;53333;51.976;20.144;2023-09-19T00:17:43;99453.72;;;20.92;60.69
36664;BME280;53333;51.976;20.144;2023-09-19T00:20:16;99457.59;;;20.90;60.50
36664;BME280;53333;51.976;20.144;2023-09-19T00:22:49;99444.22;;;20.96;60.32
36664;BME280;53333;51.976;20.144;2023-09-19T00:25:23;99442.25;;;20.80;60.59
36664;BME280;53333;51.976;20.144;2023-09-19T00:27:59;99442.72;;;20.76;60.75
36664;BME280;53333;51.976;20.144;2023-09-19T00:30:33;99435.91;;;20.72;61.07
36664;BME280;53333;51.976;20.144;2023-09-19T00:33:06;99440.41;;;20.81;60.44
36664;BME280;53333;51.976;20.144;2023-09-19T00:35:46;99436.91;;;20.71;60.51
36664;BME280;53333;51.976;20.144;2023-09-19T00:38:20;99440.25;;;20.64;60.72
36664;BME280;53333;51.976;20.144;2023-09-19T00:40:56;99444.13;;;20.62;61.01
36664;BME280;53333;51.976;20.144;2023-09-19T00:43:33;99430.88;;;20.59;61.12
36664;BME280;53333;51.976;20.144;2023-09-19T00:46:07;99431.88;;;20.58;61.37
36664;BME280;53333;51.976;20.144;2023-09-19T00:48:42;99429.16;;;20.58;61.26
36664;BME280;53333;51.976;20.144;2023-09-19T00:51:16;99434.56;;;20.58;61.38
36664;BME280;53333;51.976;20.144;2023-09-19T00:53:51;99433.88;;;20.56;61.31
36664;BME280;53333;51.976;20.144;2023-09-19T00:56:24;99430.34;;;20.55;61.39
36664;BME280;53333;51.976;20.144;2023-09-19T00:58:58;99430.66;;;20.52;61.15
36664;BME280;53333;51.976;20.144;2023-09-19T01:01:32;99424.50;;;20.50;61.38
36664;BME280;53333;51.976;20.144;2023-09-19T01:04:08;99423.66;;;20.49;61.17
36664;BME280;53333;51.976;20.144;2023-09-19T01:06:41;99421.09;;;20.48;61.17
36664;BME280;53333;51.976;20.144;2023-09-19T01:09:17;99423.81;;;20.48;61.41
36664;BME280;53333;51.976;20.144;2023-09-19T01:11:53;99407.00;;;20.44;61.22
36664;BME280;53333;51.976;20.144;2023-09-19T01:14:39;99412.28;;;20.46;61.32
36664;BME280;53333;51.976;20.144;2023-09-19T01:17:21;99401.28;;;20.47;60.97
36664;BME280;53333;51.976;20.144;2023-09-19T01:20:15;99401.97;;;20.49;61.12
36664;BME280;53333;51.976;20.144;2023-09-19T01:22:57;99404.69;;;20.49;60.74
36664;BME280;53333;51.976;20.144;2023-09-19T01:29:06;99388.09;;;20.53;60.73
36664;BME280;53333;51.976;20.144;2023-09-19T01:31:49;99393.00;;;20.49;60.80
36664;BME280;53333;51.976;20.144;2023-09-19T01:34:26;99394.00;;;20.48;60.69
36664;BME280;53333;51.976;20.144;2023-09-19T01:36:59;99384.13;;;20.47;60.77
36664;BME280;53333;51.976;20.144;2023-09-19T01:39:33;99382.47;;;20.46;60.90
36664;BME280;53333;51.976;20.144;2023-09-19T01:42:12;99383.13;;;20.48;60.48
36664;BME280;53333;51.976;20.144;2023-09-19T01:44:55;99379.44;;;20.49;60.65
36664;BME280;53333;51.976;20.144;2023-09-19T01:47:34;99382.31;;;20.47;60.46
36664;BME280;53333;51.976;20.144;2023-09-19T01:50:13;99377.72;;;20.48;60.60
36664;BME280;53333;51.976;20.144;2023-09-19T01:52:54;99377.72;;;20.48;60.28
36664;BME280;53333;51.976;20.144;2023-09-19T01:55:41;99367.56;;;20.50;60.04
36664;BME280;53333;51.976;20.144;2023-09-19T01:58:16;99368.47;;;20.59;59.57
36664;BME280;53333;51.976;20.144;2023-09-19T02:00:51;99372.44;;;20.46;59.97
36664;BME280;53333;51.976;20.144;2023-09-19T02:03:27;99372.59;;;20.45;60.26
36664;BME280;53333;51.976;20.144;2023-09-19T02:06:01;99368.22;;;20.44;60.20
36664;BME280;53333;51.976;20.144;2023-09-19T02:08:37;99368.22;;;20.44;60.43
36664;BME280;53333;51.976;20.144;2023-09-19T02:11:11;99374.63;;;20.43;60.07
36664;BME280;53333;51.976;20.144;2023-09-19T02:13:44;99374.09;;;20.39;60.37
36664;BME280;53333;51.976;20.144;2023-09-19T02:16:17;99367.81;;;20.39;60.49
36664;BME280;53333;51.976;20.144;2023-09-19T02:18:53;99359.00;;;20.37;60.20
36664;BME280;53333;51.976;20.144;2023-09-19T02:21:27;99362.69;;;20.36;60.14
36664;BME280;53333;51.976;20.144;2023-09-19T02:24:01;99363.00;;;20.32;60.21
36664;BME280;53333;51.976;20.144;2023-09-19T02:26:35;99356.75;;;20.32;60.47
36664;BME280;53333;51.976;20.144;2023-09-19T02:29:10;99357.75;;;20.31;60.37
36664;BME280;53333;51.976;20.144;2023-09-19T02:31:44;99360.78;;;20.28;60.23
36664;BME280;53333;51.976;20.144;2023-09-19T02:34:21;99354.81;;;20.24;60.70
36664;BME280;53333;51.976;20.144;2023-09-19T02:36:54;99348.84;;;20.21;60.66
36664;BME280;53333;51.976;20.144;2023-09-19T02:39:27;99348.84;;;20.21;60.72
36664;BME280;53333;51.976;20.144;2023-09-19T02:42:01;99345.31;;;20.20;60.67
36664;BME280;53333;51.976;20.144;2023-09-19T02:44:35;99344.59;;;20.18;60.92
36664;BME280;53333;51.976;20.144;2023-09-19T02:47:10;99342.03;;;20.17;61.02
36664;BME280;53333;51.976;20.144;2023-09-19T02:49:45;99344.06;;;20.14;61.07
36664;BME280;53333;51.976;20.144;2023-09-19T02:52:18;99334.56;;;20.10;60.99
36664;BME280;53333;51.976;20.144;2023-09-19T02:54:53;99335.00;;;20.06;61.04
36664;BME280;53333;51.976;20.144;2023-09-19T02:57:26;99327.34;;;20.01;61.09
36664;BME280;53333;51.976;20.144;2023-09-19T03:00:00;99333.91;;;19.99;61.31
36664;BME280;53333;51.976;20.144;2023-09-19T03:02:34;99330.44;;;20.06;60.65
36664;BME280;53333;51.976;20.144;2023-09-19T03:05:09;99328.81;;;19.95;61.22
36664;BME280;53333;51.976;20.144;2023-09-19T03:07:43;99330.00;;;19.93;60.97
36664;BME280;53333;51.976;20.144;2023-09-19T03:10:18;99327.59;;;19.90;61.26
36664;BME280;53333;51.976;20.144;2023-09-19T03:12:51;99326.03;;;19.87;61.48
36664;BME280;53333;51.976;20.144;2023-09-19T03:15:25;99327.03;;;19.86;61.25
36664;BME280;53333;51.976;20.144;2023-09-19T03:17:58;99323.63;;;19.84;61.51
36664;BME280;53333;51.976;20.144;2023-09-19T03:20:32;99311.94;;;19.84;61.56
36664;BME280;53333;51.976;20.144;2023-09-19T03:23:05;99322.09;;;19.82;61.51
36664;BME280;53333;51.976;20.144;2023-09-19T03:25:40;99317.97;;;19.77;61.71
36664;BME280;53333;51.976;20.144;2023-09-19T03:28:13;99312.84;;;19.74;61.57
36664;BME280;53333;51.976;20.144;2023-09-19T03:30:57;99320.13;;;19.74;61.95
36664;BME280;53333;51.976;20.144;2023-09-19T03:33:33;99317.00;;;19.69;61.74
36664;BME280;53333;51.976;20.144;2023-09-19T03:36:08;99315.31;;;19.68;61.78
36664;BME280;53333;51.976;20.144;2023-09-19T03:38:41;99316.31;;;19.67;62.40
36664;BME280;53333;51.976;20.144;2023-09-19T03:41:14;99319.16;;;19.65;62.07
36664;BME280;53333;51.976;20.144;2023-09-19T03:43:50;99318.34;;;19.65;62.09
36664;BME280;53333;51.976;20.144;2023-09-19T03:46:23;99309.22;;;19.66;62.00
36664;BME280;53333;51.976;20.144;2023-09-19T03:48:56;99314.78;;;19.64;61.98
36664;BME280;53333;51.976;20.144;2023-09-19T03:51:31;99317.50;;;19.64;61.93
36664;BME280;53333;51.976;20.144;2023-09-19T03:54:06;99316.47;;;19.65;62.07
36664;BME280;53333;51.976;20.144;2023-09-19T03:56:39;99315.31;;;19.68;62.02
36664;BME280;53333;51.976;20.144;2023-09-19T03:59:12;99321.56;;;19.68;62.06
36664;BME280;53333;51.976;20.144;2023-09-19T04:01:45;99315.81;;;19.81;61.38
36664;BME280;53333;51.976;20.144;2023-09-19T04:04:18;99315.69;;;19.73;61.57
36664;BME280;53333;51.976;20.144;2023-09-19T04:06:52;99306.72;;;19.72;61.64
36664;BME280;53333;51.976;20.144;2023-09-19T04:09:25;99313.69;;;19.75;61.93
36664;BME280;53333;51.976;20.144;2023-09-19T04:11:58;99306.31;;;19.77;61.94
36664;BME280;53333;51.976;20.144;2023-09-19T04:14:31;99307.16;;;19.77;61.90
36664;BME280;53333;51.976;20.144;2023-09-19T04:17:04;99299.56;;;19.81;61.64
36664;BME280;53333;51.976;20.144;2023-09-19T04:19:42;99309.41;;;19.82;61.86
36664;BME280;53333;51.976;20.144;2023-09-19T04:22:16;99296.53;;;19.84;61.76
36664;BME280;53333;51.976;20.144;2023-09-19T04:24:49;99307.22;;;19.86;61.81
36664;BME280;53333;51.976;20.144;2023-09-19T04:27:22;99309.78;;;19.87;61.84
36664;BME280;53333;51.976;20.144;2023-09-19T04:29:55;99307.06;;;19.87;61.58
36664;BME280;53333;51.976;20.144;2023-09-19T04:32:30;99326.88;;;19.88;61.75
36664;BME280;53333;51.976;20.144;2023-09-19T04:35:05;99320.47;;;19.89;61.68
36664;BME280;53333;51.976;20.144;2023-09-19T04:37:41;99316.59;;;19.91;61.96
36664;BME280;53333;51.976;20.144;2023-09-19T04:40:14;99327.97;;;19.95;61.73
36664;BME280;53333;51.976;20.144;2023-09-19T04:42:53;99329.53;;;19.98;61.60
36664;BME280;53333;51.976;20.144;2023-09-19T04:45:28;99329.34;;;19.99;61.78
36664;BME280;53333;51.976;20.144;2023-09-19T04:48:01;99330.06;;;20.01;61.83
36664;BME280;53333;51.976;20.144;2023-09-19T04:50:35;99325.31;;;20.03;61.60
36664;BME280;53333;51.976;20.144;2023-09-19T04:53:10;99325.69;;;20.08;61.63
36664;BME280;53333;51.976;20.144;2023-09-19T04:55:43;99328.09;;;20.11;61.35
36664;BME280;53333;51.976;20.144;2023-09-19T04:58:15;99331.69;;;20.12;61.41
36664;BME280;53333;51.976;20.144;2023-09-19T05:00:49;99325.25;;;20.13;61.24
36664;BME280;53333;51.976;20.144;2023-09-19T05:03:23;99330.34;;;20.16;61.15
36664;BME280;53333;51.976;20.144;2023-09-19T05:05:56;99331.03;;;20.18;61.29
36664;BME280;53333;51.976;20.144;2023-09-19T05:08:30;99327.16;;;20.21;60.91
36664;BME280;53333;51.976;20.144;2023-09-19T05:11:04;99337.00;;;20.22;61.17
36664;BME280;53333;51.976;20.144;2023-09-19T05:13:37;99332.44;;;20.22;60.97
36664;BME280;53333;51.976;20.144;2023-09-19T05:16:12;99329.31;;;20.35;60.68
36664;BME280;53333;51.976;20.144;2023-09-19T05:18:45;99328.56;;;20.25;61.01
36664;BME280;53333;51.976;20.144;2023-09-19T05:21:18;99327.69;;;20.24;60.81
36664;BME280;53333;51.976;20.144;2023-09-19T05:23:53;99328.16;;;20.38;60.36
36664;BME280;53333;51.976;20.144;2023-09-19T05:26:25;99324.97;;;20.42;60.21
36664;BME280;53333;51.976;20.144;2023-09-19T05:28:58;99325.38;;;20.29;60.73
36664;BME280;53333;51.976;20.144;2023-09-19T05:31:33;99313.84;;;20.27;60.67
36664;BME280;53333;51.976;20.144;2023-09-19T05:34:08;99318.94;;;20.30;61.03
36664;BME280;53333;51.976;20.144;2023-09-19T05:36:41;99311.34;;;20.34;60.74
36664;BME280;53333;51.976;20.144;2023-09-19T05:39:16;99309.28;;;20.54;60.46
36664;BME280;53333;51.976;20.144;2023-09-19T05:41:49;99317.75;;;20.51;60.45
36664;BME280;53333;51.976;20.144;2023-09-19T05:44:22;99323.53;;;20.56;60.33
36664;BME280;53333;51.976;20.144;2023-09-19T05:46:55;99332.75;;;20.63;60.19
36664;BME280;53333;51.976;20.144;2023-09-19T05:49:29;99330.28;;;20.70;60.26
36664;BME280;53333;51.976;20.144;2023-09-19T05:52:02;99326.44;;;20.81;59.97
36664;BME280;53333;51.976;20.144;2023-09-19T05:54:37;99326.16;;;20.92;59.93
36664;BME280;53333;51.976;20.144;2023-09-19T05:57:10;99327.91;;;21.01;59.36
36664;BME280;53333;51.976;20.144;2023-09-19T05:59:43;99336.09;;;21.10;59.27
36664;BME280;53333;51.976;20.144;2023-09-19T06:02:16;99336.28;;;21.16;59.20
36664;BME280;53333;51.976;20.144;2023-09-19T06:04:51;99338.03;;;21.26;58.75
36664;BME280;53333;51.976;20.144;2023-09-19T06:07:27;99335.50;;;21.32;58.48
36664;BME280;53333;51.976;20.144;2023-09-19T06:10:09;99333.81;;;21.39;58.33
36664;BME280;53333;51.976;20.144;2023-09-19T06:12:42;99334.88;;;21.47;58.52
36664;BME280;53333;51.976;20.144;2023-09-19T06:15:16;99344.63;;;21.57;58.23
36664;BME280;53333;51.976;20.144;2023-09-19T06:17:52;99341.59;;;21.69;57.97
36664;BME280;53333;51.976;20.144;2023-09-19T06:20:27;99339.91;;;21.84;57.87
36664;BME280;53333;51.976;20.144;2023-09-19T06:23:00;99350.47;;;22.04;57.47
36664;BME280;53333;51.976;20.144;2023-09-19T06:25:35;99351.69;;;22.26;57.06
36664;BME280;53333;51.976;20.144;2023-09-19T06:28:08;99356.47;;;22.48;56.68
36664;BME280;53333;51.976;20.144;2023-09-19T06:30:44;99353.72;;;22.65;56.36
36664;BME280;53333;51.976;20.144;2023-09-19T06:33:17;99360.16;;;22.80;55.95
36664;BME280;53333;51.976;20.144;2023-09-19T06:36:14;99366.75;;;22.94;55.24
36664;BME280;53333;51.976;20.144;2023-09-19T06:38:47;99369.66;;;23.01;55.46
36664;BME280;53333;51.976;20.144;2023-09-19T06:41:24;99369.31;;;23.04;55.02
36664;BME280;53333;51.976;20.144;2023-09-19T06:43:57;99371.16;;;23.03;54.98
36664;BME280;53333;51.976;20.144;2023-09-19T06:46:30;99375.75;;;23.03;55.01
36664;BME280;53333;51.976;20.144;2023-09-19T06:49:06;99374.06;;;23.02;55.65
36664;BME280;53333;51.976;20.144;2023-09-19T06:51:40;99374.75;;;23.12;55.64
36664;BME280;53333;51.976;20.144;2023-09-19T06:54:13;99366.31;;;23.38;55.06
36664;BME280;53333;51.976;20.144;2023-09-19T06:56:47;99381.06;;;23.52;55.25
36664;BME280;53333;51.976;20.144;2023-09-19T06:59:20;99371.72;;;23.78;54.33
36664;BME280;53333;51.976;20.144;2023-09-19T07:01:53;99390.31;;;24.06;54.22
36664;BME280;53333;51.976;20.144;2023-09-19T07:04:26;99385.09;;;24.42;53.97
36664;BME280;53333;51.976;20.144;2023-09-19T07:06:59;99383.53;;;24.48;53.64
36664;BME280;53333;51.976;20.144;2023-09-19T07:09:32;99396.78;;;24.59;52.97
36664;BME280;53333;51.976;20.144;2023-09-19T07:12:07;99397.53;;;24.68;52.91
36664;BME280;53333;51.976;20.144;2023-09-19T07:14:40;99394.94;;;24.75;52.92
36664;BME280;53333;51.976;20.144;2023-09-19T07:17:13;99405.34;;;24.71;52.88
36664;BME280;53333;51.976;20.144;2023-09-19T07:19:50;99419.97;;;24.55;53.27
36664;BME280;53333;51.976;20.144;2023-09-19T07:22:23;99430.03;;;24.32;53.65
36664;BME280;53333;51.976;20.144;2023-09-19T07:24:56;99445.03;;;24.04;54.25
36664;BME280;53333;51.976;20.144;2023-09-19T07:27:30;99452.84;;;23.76;54.69
36664;BME280;53333;51.976;20.144;2023-09-19T07:30:04;99453.09;;;23.50;55.72
36664;BME280;53333;51.976;20.144;2023-09-19T07:32:38;99442.47;;;23.24;56.27
36664;BME280;53333;51.976;20.144;2023-09-19T07:35:12;99436.84;;;23.00;56.80
36664;BME280;53333;51.976;20.144;2023-09-19T07:37:46;99447.25;;;22.80;57.82
36664;BME280;53333;51.976;20.144;2023-09-19T07:40:22;99446.25;;;22.65;58.50
36664;BME280;53333;51.976;20.144;2023-09-19T07:42:57;99439.59;;;22.51;58.57
36664;BME280;53333;51.976;20.144;2023-09-19T07:45:33;99439.25;;;22.38;59.26
36664;BME280;53333;51.976;20.144;2023-09-19T07:48:08;99453.16;;;22.26;59.85
36664;BME280;53333;51.976;20.144;2023-09-19T07:50:46;99448.53;;;22.10;60.90
36664;BME280;53333;51.976;20.144;2023-09-19T07:53:19;99449.16;;;21.96;61.69
36664;BME280;53333;51.976;20.144;2023-09-19T07:55:52;99445.94;;;21.92;60.33
36664;BME280;53333;51.976;20.144;2023-09-19T07:58:28;99452.66;;;21.72;62.43
36664;BME280;53333;51.976;20.144;2023-09-19T08:01:05;99453.81;;;21.61;63.32
36664;BME280;53333;51.976;20.144;2023-09-19T08:03:38;99459.19;;;21.53;64.04
36664;BME280;53333;51.976;20.144;2023-09-19T08:06:14;99459.13;;;21.45;64.03
36664;BME280;53333;51.976;20.144;2023-09-19T08:08:50;99459.25;;;21.35;64.70
36664;BME280;53333;51.976;20.144;2023-09-19T08:11:25;99459.19;;;21.27;65.33
36664;BME280;53333;51.976;20.144;2023-09-19T08:13:59;99460.00;;;21.19;65.36
36664;BME280;53333;51.976;20.144;2023-09-19T08:16:32;99458.59;;;21.15;66.01
36664;BME280;53333;51.976;20.144;2023-09-19T08:19:06;99461.63;;;21.12;66.08
36664;BME280;53333;51.976;20.144;2023-09-19T08:21:39;99458.25;;;21.10;66.47
36664;BME280;53333;51.976;20.144;2023-09-19T08:24:11;99457.72;;;21.06;66.66
36664;BME280;53333;51.976;20.144;2023-09-19T08:26:46;99461.59;;;21.03;66.41
36664;BME280;53333;51.976;20.144;2023-09-19T08:29:20;99462.59;;;21.02;66.88
36664;BME280;53333;51.976;20.144;2023-09-19T08:31:54;99459.19;;;21.00;66.89
36664;BME280;53333;51.976;20.144;2023-09-19T08:34:27;99462.22;;;20.97;66.94
36664;BME280;53333;51.976;20.144;2023-09-19T08:37:04;99462.38;;;20.96;67.63
36664;BME280;53333;51.976;20.144;2023-09-19T08:39:37;99459.66;;;20.96;67.53
36664;BME280;53333;51.976;20.144;2023-09-19T08:42:10;99458.09;;;20.93;67.43
36664;BME280;53333;51.976;20.144;2023-09-19T08:44:46;99456.44;;;20.92;67.65
36664;BME280;53333;51.976;20.144;2023-09-19T08:47:24;99468.28;;;20.91;67.68
36664;BME280;53333;51.976;20.144;2023-09-19T08:50:04;99464.72;;;20.91;67.92
36664;BME280;53333;51.976;20.144;2023-09-19T08:52:43;99467.28;;;20.92;68.11
36664;BME280;53333;51.976;20.144;2023-09-19T08:55:27;99466.59;;;20.90;68.27
36664;BME280;53333;51.976;20.144;2023-09-19T08:58:03;99470.47;;;20.88;68.45
36664;BME280;53333;51.976;20.144;2023-09-19T09:00:40;99459.78;;;20.86;68.70
36664;BME280;53333;51.976;20.144;2023-09-19T09:03:16;99461.47;;;20.87;68.48
36664;BME280;53333;51.976;20.144;2023-09-19T09:05:53;99457.06;;;20.86;68.74
36664;BME280;53333;51.976;20.144;2023-09-19T09:08:27;99457.59;;;20.90;68.77
36664;BME280;53333;51.976;20.144;2023-09-19T09:11:03;99472.19;;;20.89;68.67
36664;BME280;53333;51.976;20.144;2023-09-19T09:13:39;99468.28;;;20.91;69.05
36664;BME280;53333;51.976;20.144;2023-09-19T09:16:14;99471.53;;;20.95;69.23
36664;BME280;53333;51.976;20.144;2023-09-19T09:18:51;99475.78;;;20.97;68.93
36664;BME280;53333;51.976;20.144;2023-09-19T09:21:26;99485.50;;;21.00;68.77
36664;BME280;53333;51.976;20.144;2023-09-19T09:23:59;99485.19;;;21.03;68.39
36664;BME280;53333;51.976;20.144;2023-09-19T09:26:41;99485.38;;;21.10;68.69
36664;BME280;53333;51.976;20.144;2023-09-19T09:29:15;99490.50;;;21.13;68.63
36664;BME280;53333;51.976;20.144;2023-09-19T09:31:53;99482.88;;;21.16;68.85
36664;BME280;53333;51.976;20.144;2023-09-19T09:34:32;99483.78;;;21.25;68.88
36664;BME280;53333;51.976;20.144;2023-09-19T09:37:05;99488.41;;;21.33;68.59
36664;BME280;53333;51.976;20.144;2023-09-19T09:39:39;99478.47;;;21.41;68.23
36664;BME280;53333;51.976;20.144;2023-09-19T09:42:29;99476.34;;;21.53;68.28
36664;BME280;53333;51.976;20.144;2023-09-19T09:45:14;99476.22;;;21.63;67.78
36664;BME280;53333;51.976;20.144;2023-09-19T09:47:49;99481.00;;;21.69;67.82
36664;BME280;53333;51.976;20.144;2023-09-19T09:50:29;99485.13;;;21.82;67.00
36664;BME280;53333;51.976;20.144;2023-09-19T09:53:23;99482.97;;;21.93;67.04
36664;BME280;53333;51.976;20.144;2023-09-19T09:56:04;99494.72;;;22.02;67.09
36664;BME280;53333;51.976;20.144;2023-09-19T09:58:49;99500.34;;;22.09;66.67
36664;BME280;53333;51.976;20.144;2023-09-19T10:01:24;99510.22;;;22.10;66.32
36664;BME280;53333;51.976;20.144;2023-09-19T10:04:04;99508.00;;;22.05;66.22
36664;BME280;53333;51.976;20.144;2023-09-19T10:06:40;99502.56;;;22.05;66.65
36664;BME280;53333;51.976;20.144;2023-09-19T10:09:18;99514.09;;;22.07;66.31
36664;BME280;53333;51.976;20.144;2023-09-19T10:12:02;99515.50;;;22.11;66.91
36664;BME280;53333;51.976;20.144;2023-09-19T10:14:37;99507.72;;;22.25;66.26
36664;BME280;53333;51.976;20.144;2023-09-19T10:17:12;99515.69;;;22.18;66.57
36664;BME280;53333;51.976;20.144;2023-09-19T10:19:55;99519.56;;;22.16;66.22
36664;BME280;53333;51.976;20.144;2023-09-19T10:22:30;99516.00;;;22.07;66.48
36664;BME280;53333;51.976;20.144;2023-09-19T10:25:05;99521.59;;;22.05;66.40
36664;BME280;53333;51.976;20.144;2023-09-19T10:27:41;99519.88;;;22.04;66.43
36664;BME280;53333;51.976;20.144;2023-09-19T10:30:15;99515.28;;;22.05;66.41
36664;BME280;53333;51.976;20.144;2023-09-19T10:32:57;99517.19;;;22.12;66.71
36664;BME280;53333;51.976;20.144;2023-09-19T10:35:32;99526.41;;;22.20;66.53
36664;BME280;53333;51.976;20.144;2023-09-19T10:38:06;99514.16;;;22.24;66.19
36664;BME280;53333;51.976;20.144;2023-09-19T10:40:41;99523.84;;;22.26;65.95
36664;BME280;53333;51.976;20.144;2023-09-19T10:43:16;99518.78;;;22.31;66.00
36664;BME280;53333;51.976;20.144;2023-09-19T10:45:50;99526.78;;;22.33;66.27
36664;BME280;53333;51.976;20.144;2023-09-19T10:48:25;99527.31;;;22.37;65.86
36664;BME280;53333;51.976;20.144;2023-09-19T10:51:07;99522.25;;;22.42;66.11
36664;BME280;53333;51.976;20.144;2023-09-19T10:53:47;99534.81;;;22.43;65.74
36664;BME280;53333;51.976;20.144;2023-09-19T10:56:26;99534.63;;;22.44;66.32
36664;BME280;53333;51.976;20.144;2023-09-19T10:59:07;99540.75;;;22.46;66.31
36664;BME280;53333;51.976;20.144;2023-09-19T11:01:43;99534.47;;;22.46;66.17
36664;BME280;53333;51.976;20.144;2023-09-19T11:04:41;99535.69;;;22.52;65.79
36664;BME280;53333;51.976;20.144;2023-09-19T11:07:15;99538.59;;;22.66;65.53
36664;BME280;53333;51.976;20.144;2023-09-19T11:09:49;99543.03;;;22.59;65.47
36664;BME280;53333;51.976;20.144;2023-09-19T11:12:50;99545.38;;;22.62;65.57
36664;BME280;53333;51.976;20.144;2023-09-19T11:18:52;99551.19;;;22.59;65.27
36664;BME280;53333;51.976;20.144;2023-09-19T11:21:40;99546.09;;;22.64;65.31
36664;BME280;53333;51.976;20.144;2023-09-19T11:24:33;99544.03;;;22.66;65.64
36664;BME280;53333;51.976;20.144;2023-09-19T11:27:14;99549.47;;;22.66;65.91
36664;BME280;53333;51.976;20.144;2023-09-19T11:33:15;99561.19;;;22.67;65.74
36664;BME280;53333;51.976;20.144;2023-09-19T11:36:02;99560.88;;;22.62;65.86
36664;BME280;53333;51.976;20.144;2023-09-19T11:38:57;99561.91;;;22.61;66.05
36664;BME280;53333;51.976;20.144;2023-09-19T11:41:40;99558.63;;;22.57;66.09
36664;BME280;53333;51.976;20.144;2023-09-19T11:44:32;99569.88;;;22.62;65.70
36664;BME280;53333;51.976;20.144;2023-09-19T11:47:07;99560.53;;;22.65;65.84
36664;BME280;53333;51.976;20.144;2023-09-19T11:49:41;99553.06;;;22.75;65.77
36664;BME280;53333;51.976;20.144;2023-09-19T11:52:21;99551.53;;;22.81;65.98
36664;BME280;53333;51.976;20.144;2023-09-19T11:54:56;99565.66;;;22.84;65.42
36664;BME280;53333;51.976;20.144;2023-09-19T11:57:31;99562.75;;;22.86;65.50
36664;BME280;53333;51.976;20.144;2023-09-19T12:00:17;99556.47;;;22.85;65.13
36664;BME280;53333;51.976;20.144;2023-09-19T12:02:55;99559.53;;;22.82;64.56
36664;BME280;53333;51.976;20.144;2023-09-19T12:05:29;99562.59;;;22.79;64.27
36664;BME280;53333;51.976;20.144;2023-09-19T12:08:05;99572.13;;;22.75;64.37
36664;BME280;53333;51.976;20.144;2023-09-19T12:10:45;99571.75;;;22.70;64.67
36664;BME280;53333;51.976;20.144;2023-09-19T12:13:20;99567.53;;;22.67;64.59
36664;BME280;53333;51.976;20.144;2023-09-19T12:15:53;99569.19;;;22.68;64.88
36664;BME280;53333;51.976;20.144;2023-09-19T12:18:27;99566.69;;;22.75;65.07
36664;BME280;53333;51.976;20.144;2023-09-19T12:21:01;99564.81;;;22.84;64.12
36664;BME280;53333;51.976;20.144;2023-09-19T12:23:38;99568.56;;;22.91;63.83
36664;BME280;53333;51.976;20.144;2023-09-19T12:26:14;99574.34;;;22.96;64.10
36664;BME280;53333;51.976;20.144;2023-09-19T12:28:49;99574.03;;;22.99;63.23
36664;BME280;53333;51.976;20.144;2023-09-19T12:31:29;99575.69;;;23.00;63.22
36664;BME280;53333;51.976;20.144;2023-09-19T12:34:10;99575.03;;;22.98;62.50
36664;BME280;53333;51.976;20.144;2023-09-19T12:36:46;99578.94;;;22.96;62.60
36664;BME280;53333;51.976;20.144;2023-09-19T12:39:23;99574.69;;;22.93;62.46
36664;BME280;53333;51.976;20.144;2023-09-19T12:42:01;99590.00;;;22.94;62.26
36664;BME280;53333;51.976;20.144;2023-09-19T12:44:40;99581.66;;;22.96;62.42
36664;BME280;53333;51.976;20.144;2023-09-19T12:47:19;99587.97;;;22.96;61.84
36664;BME280;53333;51.976;20.144;2023-09-19T12:50:09;99592.03;;;23.00;62.14
36664;BME280;53333;51.976;20.144;2023-09-19T12:52:52;99594.94;;;22.99;61.82
36664;BME280;53333;51.976;20.144;2023-09-19T12:55:30;99603.09;;;22.99;61.45
36664;BME280;53333;51.976;20.144;2023-09-19T12:58:12;99603.09;;;22.99;61.66
36664;BME280;53333;51.976;20.144;2023-09-19T13:00:55;99602.25;;;22.98;61.25
36664;BME280;53333;51.976;20.144;2023-09-19T13:03:33;99610.94;;;22.94;61.08
36664;BME280;53333;51.976;20.144;2023-09-19T13:06:11;99616.53;;;22.92;59.98
36664;BME280;53333;51.976;20.144;2023-09-19T13:09:11;99610.09;;;22.93;60.04
36664;BME280;53333;51.976;20.144;2023-09-19T13:11:49;99618.75;;;22.89;60.05
36664;BME280;53333;51.976;20.144;2023-09-19T13:14:23;99610.91;;;22.85;59.67
36664;BME280;53333;51.976;20.144;2023-09-19T13:17:08;99610.56;;;22.80;59.86
36664;BME280;53333;51.976;20.144;2023-09-19T13:19:51;99615.84;;;22.74;59.57
36664;BME280;53333;51.976;20.144;2023-09-19T13:22:39;99616.50;;;22.67;59.71
36664;BME280;53333;51.976;20.144;2023-09-19T13:25:21;99617.31;;;22.60;59.67
36664;BME280;53333;51.976;20.144;2023-09-19T13:27:56;99612.22;;;22.57;59.83
36664;BME280;53333;51.976;20.144;2023-09-19T13:30:31;99619.38;;;22.58;60.34
36664;BME280;53333;51.976;20.144;2023-09-19T13:33:13;99611.38;;;22.56;60.06
36664;BME280;53333;51.976;20.144;2023-09-19T13:36:05;99619.69;;;22.55;60.30
36664;BME280;53333;51.976;20.144;2023-09-19T13:38:42;99619.88;;;22.53;60.58
36664;BME280;53333;51.976;20.144;2023-09-19T13:41:19;99625.31;;;22.53;60.45
36664;BME280;53333;51.976;20.144;2023-09-19T13:43:53;99619.88;;;22.53;60.26
36664;BME280;53333;51.976;20.144;2023-09-19T13:46:31;99617.66;;;22.57;60.59
36664;BME280;53333;51.976;20.144;2023-09-19T13:49:13;99615.28;;;22.62;60.48